createdAt,value
2022-12-31T00:01:54.848Z,69.53
2022-12-31T00:04:27.690Z,67.00
2022-12-31T00:06:57.813Z,60.40
2022-12-31T00:09:28.721Z,60.90
2022-12-31T00:11:58.997Z,52.42
2022-12-31T00:14:29.162Z,57.88
2022-12-31T00:16:59.554Z,52.88
2022-12-31T00:19:32.826Z,60.90
2022-12-31T00:22:03.038Z,56.60
2022-12-31T00:24:35.953Z,49.67
2022-12-31T00:27:06.352Z,49.25
2022-12-31T00:29:36.969Z,46.25
2022-12-31T00:32:09.579Z,42.05
2022-12-31T00:34:42.478Z,47.03
2022-12-31T00:37:16.913Z,48.33
2022-12-31T00:39:47.068Z,44.00
2022-12-31T00:42:17.326Z,39.80
2022-12-31T00:44:47.676Z,46.22
2022-12-31T00:47:17.922Z,46.33
2022-12-31T00:49:50.769Z,44.10
2022-12-31T00:52:22.049Z,48.38
2022-12-31T00:54:52.239Z,39.88
2022-12-31T00:57:22.446Z,44.88
2022-12-31T00:59:52.966Z,45.83
2022-12-31T01:02:23.822Z,45.47
2022-12-31T01:04:56.931Z,44.28
2022-12-31T01:07:27.225Z,42.38
2022-12-31T01:09:57.792Z,43.53
2022-12-31T01:12:28.115Z,44.63
2022-12-31T01:14:58.238Z,40.40
2022-12-31T01:17:28.464Z,43.28
2022-12-31T01:20:01.649Z,45.42
2022-12-31T01:22:33.141Z,47.08
2022-12-31T01:25:03.353Z,45.50
2022-12-31T01:27:33.582Z,43.25
2022-12-31T01:30:03.776Z,50.08
2022-12-31T01:32:34.748Z,47.60
2022-12-31T01:35:08.331Z,49.00
2022-12-31T01:37:39.188Z,54.80
2022-12-31T01:40:10.582Z,57.45
2022-12-31T01:42:40.947Z,48.70
2022-12-31T01:45:15.024Z,61.40
2022-12-31T01:50:24.102Z,56.88
2022-12-31T01:52:57.781Z,58.75
2022-12-31T01:55:33.303Z,70.80
2022-12-31T01:58:08.115Z,62.60
2022-12-31T02:00:38.819Z,58.05
2022-12-31T02:03:10.637Z,63.78
2022-12-31T02:05:50.214Z,55.75
2022-12-31T02:08:21.039Z,61.42
2022-12-31T02:10:51.249Z,75.55
2022-12-31T02:13:21.533Z,62.75
2022-12-31T02:16:00.852Z,73.90
2022-12-31T02:18:38.055Z,76.22
2022-12-31T02:21:33.956Z,65.60
2022-12-31T02:24:33.754Z,73.97
2022-12-31T02:27:08.432Z,125.07
2022-12-31T02:30:06.692Z,114.47
2022-12-31T02:32:53.470Z,73.78
2022-12-31T02:35:27.990Z,116.22
2022-12-31T02:38:07.761Z,123.00
2022-12-31T02:40:41.110Z,75.45
2022-12-31T02:43:11.323Z,132.53
2022-12-31T02:45:48.143Z,197.75
2022-12-31T02:48:32.592Z,158.82
2022-12-31T02:51:15.419Z,124.05
2022-12-31T02:54:11.712Z,119.47
2022-12-31T02:56:48.532Z,98.03
2022-12-31T02:59:39.062Z,85.90
2022-12-31T03:02:19.716Z,93.82
2022-12-31T03:04:54.364Z,180.85
2022-12-31T03:07:27.021Z,85.30
2022-12-31T03:09:57.746Z,156.13
2022-12-31T03:12:42.533Z,92.13
2022-12-31T03:15:22.599Z,217.48
2022-12-31T03:17:58.838Z,171.07
2022-12-31T03:20:45.340Z,88.45
2022-12-31T03:23:19.165Z,109.15
2022-12-31T03:25:46.911Z,104.03
2022-12-31T03:28:20.762Z,67.60
2022-12-31T03:30:52.638Z,106.15
2022-12-31T03:33:27.241Z,122.03
2022-12-31T03:35:57.443Z,207.32
2022-12-31T03:38:27.850Z,111.25
2022-12-31T03:40:58.266Z,142.85
2022-12-31T03:43:28.592Z,127.57
2022-12-31T03:45:59.973Z,172.20
2022-12-31T03:48:32.869Z,154.45
2022-12-31T03:51:03.035Z,117.68
2022-12-31T03:53:34.979Z,180.75
2022-12-31T03:56:05.216Z,89.53
2022-12-31T03:58:35.424Z,97.07
2022-12-31T04:01:05.708Z,63.58
2022-12-31T04:03:38.566Z,137.32
2022-12-31T04:06:08.903Z,61.03
2022-12-31T04:08:39.088Z,59.38
2022-12-31T04:11:09.738Z,74.25
2022-12-31T04:13:39.930Z,65.38
2022-12-31T04:16:10.271Z,50.85
2022-12-31T04:18:43.228Z,55.85
2022-12-31T04:21:13.421Z,46.05
2022-12-31T04:23:43.556Z,49.92
2022-12-31T04:26:13.762Z,46.35
2022-12-31T04:28:43.935Z,52.00
2022-12-31T04:31:14.109Z,41.72
2022-12-31T04:33:46.910Z,49.40
2022-12-31T04:36:17.103Z,44.00
2022-12-31T04:38:47.289Z,39.75
2022-12-31T04:41:21.050Z,41.22
2022-12-31T04:43:53.873Z,47.72
2022-12-31T04:46:25.892Z,44.67
2022-12-31T04:48:59.251Z,46.17
2022-12-31T04:51:30.827Z,46.20
2022-12-31T04:54:01.595Z,46.30
2022-12-31T04:56:32.214Z,43.90
2022-12-31T04:59:02.430Z,57.95
2022-12-31T05:01:33.283Z,43.85
2022-12-31T05:04:06.273Z,49.17
2022-12-31T05:06:36.543Z,41.90
2022-12-31T05:09:06.818Z,42.28
2022-12-31T05:11:38.042Z,40.95
2022-12-31T05:14:08.239Z,41.72
2022-12-31T05:16:38.483Z,37.63
2022-12-31T05:19:11.502Z,37.72
2022-12-31T05:21:41.953Z,38.10
2022-12-31T05:24:12.171Z,35.88
2022-12-31T05:26:42.343Z,33.80
2022-12-31T05:29:12.699Z,30.02
2022-12-31T05:31:42.926Z,37.60
2022-12-31T05:34:16.011Z,45.88
2022-12-31T05:36:46.229Z,32.03
2022-12-31T05:39:16.325Z,40.90
2022-12-31T05:41:46.579Z,31.65
2022-12-31T05:44:19.294Z,32.25
2022-12-31T05:46:52.460Z,28.33
2022-12-31T05:49:25.580Z,28.92
2022-12-31T05:51:56.115Z,27.33
2022-12-31T05:54:26.272Z,23.55
2022-12-31T05:56:56.557Z,30.20
2022-12-31T05:59:26.896Z,34.60
2022-12-31T06:01:57.662Z,29.48
2022-12-31T06:04:30.590Z,28.75
2022-12-31T06:07:00.807Z,27.30
2022-12-31T06:09:31.135Z,29.38
2022-12-31T06:12:01.292Z,33.75
2022-12-31T06:14:31.502Z,29.17
2022-12-31T06:17:01.800Z,26.13
2022-12-31T06:19:34.574Z,31.35
2022-12-31T06:22:04.752Z,50.05
2022-12-31T06:24:34.885Z,43.25
2022-12-31T06:27:05.145Z,66.00
2022-12-31T06:29:36.019Z,72.38
2022-12-31T06:32:06.344Z,49.33
2022-12-31T06:34:39.060Z,49.95
2022-12-31T06:37:09.318Z,54.70
2022-12-31T06:39:39.464Z,67.80
2022-12-31T06:42:09.641Z,38.72
2022-12-31T06:44:39.817Z,36.65
2022-12-31T06:47:09.947Z,27.48
2022-12-31T06:49:42.931Z,33.00
2022-12-31T06:52:13.183Z,30.30
2022-12-31T06:54:44.108Z,30.05
2022-12-31T06:57:14.899Z,32.58
2022-12-31T06:59:46.951Z,29.65
2022-12-31T07:02:49.848Z,27.73
2022-12-31T07:05:31.802Z,28.80
2022-12-31T07:08:17.176Z,21.08
2022-12-31T07:10:55.215Z,26.25
2022-12-31T07:13:53.394Z,29.83
2022-12-31T07:16:39.705Z,27.63
2022-12-31T07:19:19.953Z,32.22
2022-12-31T07:21:56.073Z,36.00
2022-12-31T07:24:27.536Z,33.22
2022-12-31T07:27:15.072Z,39.10
2022-12-31T07:30:05.205Z,38.63
2022-12-31T07:32:58.828Z,37.03
2022-12-31T07:35:37.136Z,31.15
2022-12-31T07:38:22.085Z,44.22
2022-12-31T07:41:05.545Z,38.97
2022-12-31T07:43:52.639Z,39.33
2022-12-31T07:46:35.249Z,35.28
2022-12-31T07:49:06.128Z,28.40
2022-12-31T07:51:36.899Z,37.03
2022-12-31T07:54:13.838Z,43.65
2022-12-31T07:56:45.843Z,31.55
2022-12-31T07:59:25.547Z,27.00
2022-12-31T08:02:04.440Z,26.73
2022-12-31T08:04:44.104Z,21.15
2022-12-31T08:07:22.919Z,25.55
2022-12-31T08:10:04.300Z,24.15
2022-12-31T08:12:38.393Z,20.77
2022-12-31T08:15:16.052Z,25.33
2022-12-31T08:17:47.264Z,30.65
2022-12-31T08:20:19.474Z,28.45
2022-12-31T08:23:18.237Z,30.60
2022-12-31T08:26:13.716Z,28.98
2022-12-31T08:28:56.824Z,23.88
2022-12-31T08:31:34.948Z,24.95
2022-12-31T08:34:12.772Z,32.03
2022-12-31T08:36:52.485Z,27.23
2022-12-31T08:39:34.509Z,31.15
2022-12-31T08:42:15.729Z,25.85
2022-12-31T08:44:52.541Z,27.73
2022-12-31T08:47:35.481Z,25.35
2022-12-31T08:50:16.027Z,26.60
2022-12-31T08:52:46.813Z,28.60
2022-12-31T08:55:19.683Z,29.50
2022-12-31T08:58:05.326Z,29.95
2022-12-31T09:00:36.966Z,29.35
2022-12-31T09:03:44.826Z,33.55
2022-12-31T09:06:21.970Z,25.60
2022-12-31T09:08:58.990Z,30.65
2022-12-31T09:11:36.015Z,26.20
2022-12-31T09:14:21.716Z,31.65
2022-12-31T09:17:02.290Z,24.50
2022-12-31T09:19:32.666Z,29.00
2022-12-31T09:22:03.711Z,25.13
2022-12-31T09:24:37.595Z,23.77
2022-12-31T09:27:14.366Z,23.95
2022-12-31T09:29:58.917Z,27.73
2022-12-31T09:32:42.161Z,27.75
2022-12-31T09:35:25.397Z,28.60
2022-12-31T09:38:05.292Z,23.20
2022-12-31T09:40:53.244Z,24.38
2022-12-31T09:44:07.999Z,26.33
2022-12-31T09:47:19.713Z,21.88
2022-12-31T09:50:25.646Z,23.35
2022-12-31T09:53:16.335Z,20.70
2022-12-31T09:55:52.664Z,26.52
2022-12-31T09:58:41.004Z,26.45
2022-12-31T10:01:24.560Z,22.15
2022-12-31T10:04:33.100Z,24.83
2022-12-31T10:07:12.103Z,25.98
2022-12-31T10:10:16.207Z,27.52
2022-12-31T10:13:32.546Z,25.00
2022-12-31T10:16:16.483Z,28.50
2022-12-31T10:19:05.180Z,27.15
2022-12-31T10:21:50.383Z,26.20
2022-12-31T10:24:48.600Z,26.60
2022-12-31T10:27:37.224Z,26.75
2022-12-31T10:30:18.087Z,23.48
2022-12-31T10:33:01.624Z,23.15
2022-12-31T10:35:38.829Z,23.93
2022-12-31T10:38:29.589Z,22.13
2022-12-31T10:41:34.974Z,23.58
2022-12-31T10:44:41.799Z,23.30
2022-12-31T10:47:37.011Z,24.30
2022-12-31T10:50:34.507Z,23.13
2022-12-31T10:53:44.443Z,24.52
2022-12-31T10:56:49.762Z,25.23
2022-12-31T10:59:54.269Z,21.25
2022-12-31T11:03:01.705Z,28.50
2022-12-31T11:06:03.589Z,30.70
2022-12-31T11:08:56.729Z,25.10
2022-12-31T11:11:38.750Z,27.35
2022-12-31T11:14:47.380Z,24.08
2022-12-31T11:17:40.667Z,28.02
2022-12-31T11:20:30.252Z,28.67
2022-12-31T11:23:12.625Z,30.63
2022-12-31T11:25:57.871Z,26.52
2022-12-31T11:29:04.348Z,28.88
2022-12-31T11:31:50.274Z,29.50
2022-12-31T11:34:38.307Z,28.50
2022-12-31T11:37:27.679Z,26.08
2022-12-31T11:40:05.236Z,28.23
2022-12-31T11:42:53.623Z,24.55
2022-12-31T11:45:46.962Z,26.08
2022-12-31T11:48:32.917Z,23.70
2022-12-31T11:51:25.653Z,24.30
2022-12-31T11:54:18.060Z,26.20
2022-12-31T11:56:54.044Z,36.92
2022-12-31T11:59:24.894Z,32.72
2022-12-31T12:02:01.239Z,33.92
2022-12-31T12:04:31.540Z,33.50
2022-12-31T12:07:04.552Z,31.05
2022-12-31T12:09:38.299Z,33.17
2022-12-31T12:12:09.702Z,35.35
2022-12-31T12:14:42.608Z,31.77
2022-12-31T12:17:17.630Z,30.23
2022-12-31T12:19:50.028Z,31.77
2022-12-31T12:22:26.628Z,32.53
2022-12-31T12:24:58.491Z,32.63
2022-12-31T12:27:32.641Z,31.55
2022-12-31T12:30:12.773Z,30.67
2022-12-31T12:32:54.576Z,30.02
2022-12-31T12:35:29.141Z,32.78
2022-12-31T12:38:07.692Z,31.67
2022-12-31T12:40:38.450Z,31.83
2022-12-31T12:43:09.340Z,27.63
2022-12-31T12:45:51.193Z,31.48
2022-12-31T12:48:34.201Z,29.38
2022-12-31T12:51:16.056Z,31.85
2022-12-31T12:53:59.019Z,28.17
2022-12-31T12:56:40.062Z,31.35
2022-12-31T12:59:38.070Z,27.75
2022-12-31T13:02:30.736Z,29.60
2022-12-31T13:05:13.835Z,33.10
2022-12-31T13:07:55.643Z,35.20
2022-12-31T13:10:45.691Z,35.42
2022-12-31T13:13:33.289Z,34.33
2022-12-31T13:16:14.910Z,29.98
2022-12-31T13:18:55.934Z,36.50
2022-12-31T13:21:38.016Z,31.35
2022-12-31T13:24:18.420Z,29.60
2022-12-31T13:26:58.098Z,25.63
2022-12-31T13:29:31.960Z,26.88
2022-12-31T13:32:08.663Z,32.45
2022-12-31T13:34:44.191Z,29.48
2022-12-31T13:37:25.490Z,29.83
2022-12-31T13:40:02.381Z,33.75
2022-12-31T13:42:42.791Z,29.40
2022-12-31T13:45:19.807Z,28.85
2022-12-31T13:47:55.332Z,31.92
2022-12-31T13:50:32.485Z,34.35
2022-12-31T13:53:08.596Z,36.65
2022-12-31T13:55:45.186Z,32.05
2022-12-31T13:58:28.035Z,35.28
2022-12-31T14:01:04.757Z,33.28
2022-12-31T14:03:43.295Z,35.53
2022-12-31T14:06:21.973Z,30.67
2022-12-31T14:08:52.373Z,32.83
2022-12-31T14:11:35.070Z,35.17
2022-12-31T14:14:17.401Z,32.65
2022-12-31T14:16:55.231Z,34.20
2022-12-31T14:19:41.058Z,34.38
2022-12-31T14:22:20.062Z,37.67
2022-12-31T14:24:52.619Z,34.38
2022-12-31T14:27:28.700Z,32.95
2022-12-31T14:30:05.055Z,34.45
2022-12-31T14:33:11.545Z,33.83
2022-12-31T14:36:10.769Z,36.60
2022-12-31T14:38:56.068Z,31.42
2022-12-31T14:41:46.338Z,36.80
2022-12-31T14:44:32.782Z,34.10
2022-12-31T14:47:16.379Z,34.70
2022-12-31T14:49:55.726Z,36.75
2022-12-31T14:52:32.958Z,38.20
2022-12-31T14:55:27.024Z,34.17
2022-12-31T15:00:56.252Z,39.58
2022-12-31T15:03:45.908Z,44.30
2022-12-31T15:06:34.966Z,38.20
2022-12-31T15:09:11.639Z,42.72
2022-12-31T15:11:53.175Z,39.55
2022-12-31T15:14:39.281Z,40.63
2022-12-31T15:17:22.758Z,42.22
2022-12-31T15:20:23.023Z,41.47
2022-12-31T15:22:57.096Z,39.85
2022-12-31T15:25:40.005Z,43.28
2022-12-31T15:28:27.748Z,44.97
2022-12-31T15:31:20.074Z,44.40
2022-12-31T15:34:02.877Z,41.53
2022-12-31T15:36:35.872Z,43.83
2022-12-31T15:39:28.410Z,52.10
2022-12-31T15:44:53.539Z,56.35
2022-12-31T15:47:31.220Z,48.05
2022-12-31T15:50:04.895Z,50.00
2022-12-31T15:52:44.699Z,51.70
2022-12-31T15:55:28.047Z,52.67
2022-12-31T15:58:02.575Z,47.35
2022-12-31T16:00:47.635Z,45.55
2022-12-31T16:03:25.285Z,42.53
2022-12-31T16:06:01.595Z,47.33
2022-12-31T16:08:34.692Z,49.30
2022-12-31T16:11:09.261Z,48.60
2022-12-31T16:13:43.222Z,46.55
2022-12-31T16:16:24.153Z,48.15
2022-12-31T16:18:55.181Z,48.40
2022-12-31T16:21:35.557Z,48.28
2022-12-31T16:24:08.771Z,54.78
2022-12-31T16:26:47.984Z,54.10
2022-12-31T16:29:20.294Z,47.80
2022-12-31T16:31:53.262Z,50.60
2022-12-31T16:34:26.194Z,55.50
2022-12-31T16:37:01.723Z,49.17
2022-12-31T16:39:34.785Z,46.60
2022-12-31T16:42:20.972Z,58.88
2022-12-31T16:44:52.196Z,60.22
2022-12-31T16:47:25.494Z,54.30
2022-12-31T16:50:04.181Z,96.03
2022-12-31T16:52:38.550Z,72.60
2022-12-31T16:55:12.063Z,77.10
2022-12-31T16:57:47.053Z,71.85
2022-12-31T17:00:21.242Z,66.40
2022-12-31T17:02:59.695Z,68.65
2022-12-31T17:05:30.726Z,58.85
2022-12-31T17:08:01.103Z,68.05
2022-12-31T17:10:37.542Z,68.80
2022-12-31T17:13:27.677Z,69.88
2022-12-31T17:16:00.764Z,63.78
2022-12-31T17:18:38.410Z,67.38
2022-12-31T17:21:11.699Z,64.45
2022-12-31T17:23:44.260Z,68.47
2022-12-31T17:26:16.787Z,71.72
2022-12-31T17:28:53.002Z,64.50
2022-12-31T17:31:33.291Z,60.83
2022-12-31T17:34:32.581Z,53.67
2022-12-31T17:37:21.320Z,55.67
2022-12-31T17:39:53.888Z,64.18
2022-12-31T17:42:30.061Z,66.00
2022-12-31T17:45:05.130Z,59.35
2022-12-31T17:47:41.216Z,68.85
2022-12-31T17:50:22.781Z,70.22
2022-12-31T17:52:53.119Z,67.50
2022-12-31T17:55:23.402Z,66.05
2022-12-31T17:57:56.202Z,57.47
2022-12-31T18:00:29.901Z,56.53
2022-12-31T18:03:00.229Z,62.80
2022-12-31T18:05:30.577Z,58.28
2022-12-31T18:08:00.792Z,69.15
2022-12-31T18:10:34.709Z,69.35
2022-12-31T18:13:07.891Z,60.78
2022-12-31T18:15:40.728Z,66.40
2022-12-31T18:18:25.271Z,64.95
2022-12-31T18:20:58.632Z,59.55
2022-12-31T18:23:34.349Z,60.55
2022-12-31T18:26:04.643Z,65.38
2022-12-31T18:28:35.085Z,66.80
2022-12-31T18:31:08.140Z,69.45
2022-12-31T18:33:38.375Z,69.47
2022-12-31T18:36:13.092Z,64.82
2022-12-31T18:38:44.027Z,74.70
2022-12-31T18:41:20.449Z,75.75
2022-12-31T18:43:50.948Z,74.88
2022-12-31T18:46:27.081Z,65.43
2022-12-31T18:48:57.365Z,78.00
2022-12-31T18:51:32.043Z,69.32
2022-12-31T18:54:02.903Z,62.88
2022-12-31T18:56:33.207Z,65.30
2022-12-31T18:59:03.401Z,63.90
2022-12-31T19:01:39.888Z,69.45
2022-12-31T19:04:18.802Z,64.50
2022-12-31T19:06:56.161Z,64.35
2022-12-31T19:09:45.063Z,64.90
2022-12-31T19:12:17.292Z,69.60
2022-12-31T19:14:47.411Z,68.60
2022-12-31T19:17:21.818Z,66.75
2022-12-31T19:19:52.102Z,62.78
2022-12-31T19:22:22.320Z,66.72
2022-12-31T19:24:52.860Z,66.97
2022-12-31T19:27:23.063Z,57.67
2022-12-31T19:29:53.417Z,59.65
2022-12-31T19:32:26.218Z,58.13
2022-12-31T19:34:56.542Z,67.38
2022-12-31T19:37:26.807Z,75.85
2022-12-31T19:39:57.177Z,75.80
2022-12-31T19:42:27.946Z,69.40
2022-12-31T19:44:58.100Z,60.85
2022-12-31T19:47:30.910Z,60.05
2022-12-31T19:50:01.251Z,63.80
2022-12-31T19:52:31.572Z,61.70
2022-12-31T19:55:01.743Z,58.90
2022-12-31T19:57:31.940Z,56.92
2022-12-31T20:00:02.499Z,53.45
2022-12-31T20:02:36.233Z,54.05
2022-12-31T20:05:06.937Z,57.25
2022-12-31T20:07:37.200Z,54.15
2022-12-31T20:10:11.029Z,56.15
2022-12-31T20:12:44.511Z,49.85
2022-12-31T20:15:15.024Z,55.55
2022-12-31T20:17:47.846Z,50.35
2022-12-31T20:20:18.253Z,53.50
2022-12-31T20:22:48.675Z,45.50
2022-12-31T20:25:19.210Z,47.17
2022-12-31T20:27:49.440Z,43.08
2022-12-31T20:30:23.222Z,40.92
2022-12-31T20:32:56.090Z,55.35
2022-12-31T20:35:26.329Z,59.88
2022-12-31T20:37:56.794Z,64.68
2022-12-31T20:40:27.421Z,63.17
2022-12-31T20:42:57.997Z,68.15
2022-12-31T20:45:28.222Z,62.67
2022-12-31T20:48:01.159Z,82.95
2022-12-31T20:50:31.457Z,70.80
2022-12-31T20:53:02.151Z,70.18
2022-12-31T20:55:32.801Z,76.78
2022-12-31T20:58:04.338Z,66.35
2022-12-31T21:00:34.500Z,61.50
2022-12-31T21:03:23.778Z,64.43
2022-12-31T21:05:57.976Z,56.03
2022-12-31T21:08:34.347Z,55.88
2022-12-31T21:11:25.736Z,52.30
2022-12-31T21:13:53.392Z,42.65
2022-12-31T21:16:23.668Z,52.90
2022-12-31T21:18:57.000Z,43.75
2022-12-31T21:21:27.711Z,40.97
2022-12-31T21:23:57.939Z,42.22
2022-12-31T21:26:30.856Z,40.92
2022-12-31T21:29:01.421Z,39.15
2022-12-31T21:31:31.612Z,37.80
2022-12-31T21:34:04.476Z,42.08
2022-12-31T21:36:34.783Z,46.58
2022-12-31T21:39:05.066Z,47.85
2022-12-31T21:41:47.615Z,52.42
2022-12-31T21:44:17.839Z,48.08
2022-12-31T21:47:25.130Z,41.20
2022-12-31T21:49:43.597Z,68.53
2022-12-31T21:52:30.807Z,61.10
2022-12-31T21:55:15.049Z,67.88
2022-12-31T21:58:24.229Z,56.08
2022-12-31T22:00:48.858Z,52.25
2022-12-31T22:03:28.482Z,46.10
2022-12-31T22:06:09.135Z,47.20
2022-12-31T22:08:40.276Z,44.38
2022-12-31T22:11:11.549Z,40.60
2022-12-31T22:13:42.292Z,37.13
2022-12-31T22:16:13.296Z,41.55
2022-12-31T22:18:45.598Z,38.72
2022-12-31T22:21:20.713Z,36.03
2022-12-31T22:23:52.582Z,36.55
2022-12-31T22:26:24.575Z,38.47
2022-12-31T22:28:59.224Z,36.97
2022-12-31T22:31:31.713Z,33.03
2022-12-31T22:34:02.296Z,31.83
2022-12-31T22:36:35.203Z,40.72
2022-12-31T22:39:05.460Z,33.40
2022-12-31T22:41:36.787Z,41.47
2022-12-31T22:44:06.990Z,42.08
2022-12-31T22:46:40.702Z,54.53
2022-12-31T22:49:13.560Z,58.10
2022-12-31T22:51:57.026Z,49.45
2022-12-31T22:54:30.009Z,35.13
2022-12-31T22:57:01.346Z,38.90
2022-12-31T22:59:31.569Z,39.53
2022-12-31T23:02:01.888Z,38.97
2022-12-31T23:04:32.301Z,39.65
2022-12-31T23:07:05.166Z,40.20
2022-12-31T23:09:48.407Z,47.45
2022-12-31T23:12:18.741Z,38.83
2022-12-31T23:15:01.342Z,40.42
2022-12-31T23:17:43.835Z,45.20
2022-12-31T23:20:29.583Z,40.70
2022-12-31T23:23:08.810Z,38.67
2022-12-31T23:25:44.292Z,38.53
2022-12-31T23:28:16.732Z,40.80
2022-12-31T23:30:47.432Z,45.70
2022-12-31T23:33:20.390Z,44.95
2022-12-31T23:35:52.004Z,52.50
2022-12-31T23:38:24.803Z,55.88
2022-12-31T23:40:55.314Z,53.80
2022-12-31T23:43:25.875Z,56.55
2022-12-31T23:45:56.446Z,69.47
2022-12-31T23:48:26.672Z,68.93
2022-12-31T23:50:56.816Z,68.32
2022-12-31T23:53:29.678Z,63.65
2022-12-31T23:56:13.897Z,62.60
2022-12-31T23:58:46.986Z,72.75
